Marcos Batista

Olheiro - Internacional
25 Jun 2028
Domingo
Processo

Personalidade

Adaptabilidade (2) Ambição (10) Controvérsia (4) Lealdade (13) Pressão (4) Profissionalismo (3) Espírito Esportivo (3) Temperamento (18)

Perfil

Estilo de Treinamento Democrático
Licença Continental C
Determinação 13
Gestão de Pessoas 15
Motivação 12
Disciplina 7
Satisfação no Trabalho
100%
Fadiga
0%
Função Olheiro
Salário 105.4K p/s
Contrato 14.03.2029

Desempenho

Comportamento Bom
Eficácia do Treinamento
60%
Desenvolvimento do Jogador
35%
Prevenção de Lesões
50%
Implementação Tática
70%

Eventos Recentes

Participou de uma reunião de recrutamento agora
Participou de uma reunião de recrutamento agora
Recomendou um alvo de transferência agora
Recomendou um alvo de transferência agora
Participou de uma reunião de recrutamento 7d atrás
Recomendou um alvo de transferência 7d atrás
Recomendou um alvo de transferência 7d atrás
Apresentou um dossiê à direção 7d atrás

Monitorando agora

241
Jogador Clube Status Habilidade Confiança Observado Última observação Último voto
Tiquinho Soares Corinthians Perdido 112 / 117 79% 1 19.06.2028 Aprovar
Jalen Blesa Oliveirense Perdido 126 / 136 40% 1 12.06.2028 -
Jeremy Sarmiento Middlesbrough Ativo 136 / 124 40% 1 12.06.2028 -
Eom Ji-Sung Mansfield Town Ativo 125 / 115 40% 1 12.06.2028 -
Ryan Corinthians Ativo 114 / 121 79% 1 07.06.2028 Aprovar
Fellipe Mateus Criciuma Perdido 108 / 105 79% 1 02.06.2028 -
Tyreece Campbell Charlton Athletic Perdido 120 / 134 40% 1 01.06.2028 -
Rodrigo Nestor Bahia Ativo 129 / 124 40% 1 30.11.2027 Mais informações
Allan Saint-Maximin Charlotte Football Club Ativo 149 / 126 40% 1 30.11.2027 -
Aune Heggebø West Bromwich Albion Ativo 126 / 123 40% 3 03.06.2027 -
Joe Gelhardt Hull City Ativo 138 / 144 40% 6 03.06.2027 -
Max Bird Birmingham Ativo 136 / 128 40% 2 31.05.2027 -
Maduka Okoye Udinese Ativo 137 / 142 40% 2 30.05.2027 -
Radek Vítek Middlesbrough Ativo 142 / 152 40% 2 29.05.2027 -
Hidemasa Morita Hull City Ativo 147 / 128 40% 3 28.05.2027 -
Óscar Mingueza Crystal Palace Ativo 151 / 159 40% 2 28.05.2027 -
Amadou Onana Aston Villa Ativo 149 / 153 40% 1 28.05.2027 -
Gonzalo Fulham Ativo 147 / 139 40% 3 26.05.2027 -
Manor Solomon West Ham United Ativo 148 / 149 40% 2 25.05.2027 -
Xavi Simons Tottenham Ativo 149 / 156 40% 1 25.05.2027 -
Sorba Thomas Stoke City Ativo 131 / 116 40% 2 24.05.2027 -
Nordi Mukiele Sunderland Ativo 137 / 134 40% 5 23.05.2027 -
Dara O'Shea Ipswich Town Ativo 145 / 143 40% 6 23.05.2027 -
Carlos Vicente Birmingham Ativo 138 / 138 40% 4 23.05.2027 -
Ismaïla Sarr Crystal Palace Ativo 145 / 147 40% 1 23.05.2027 -
Alex Scott Bournemouth Ativo 156 / 161 40% 1 23.05.2027 -
Florentino Luís Ipswich Town Ativo 141 / 138 40% 5 22.05.2027 -
Adam Wharton Crystal Palace Ativo 148 / 158 40% 1 22.05.2027 -
Boubacar Kamara Aston Villa Ativo 174 / 155 40% 3 20.05.2027 -
Pedro Porro Tottenham Ativo 147 / 148 40% 3 19.05.2027 -
Japhet Tanganga Sheffield United Ativo 137 / 147 40% 2 19.05.2027 -
Jarrad Branthwaite Everton Ativo 153 / 164 40% 2 18.05.2027 -
Azor Matusiwa Ipswich Town Ativo 142 / 131 40% 3 18.05.2027 -
Tino Livramento Newcastle United Ativo 166 / 173 40% 1 18.05.2027 -
Mile Svilar AS Roma Ativo 162 / 165 40% 1 18.05.2027 -
Lautaro Martínez Inter Ativo 180 / 174 40% 2 17.05.2027 Mais informações
Kevin Schade Chelsea Ativo 155 / 144 40% 1 17.05.2027 -
André-Franck Zambo Anguissa Napoli Ativo 168 / 169 40% 8 15.05.2027 -
Morgan Rogers Chelsea Ativo 162 / 165 40% 1 15.05.2027 -
Lorenzo Colombo Genoa Ativo 147 / 151 40% 4 14.05.2027 -
Georginio Rutter Brighton Ativo 154 / 138 40% 4 12.05.2027 -
Giacomo Raspadori Atalanta Ativo 157 / 150 40% 3 12.05.2027 -
Tammy Abraham Aston Villa Ativo 151 / 134 40% 1 12.05.2027 -
James Garner Everton Ativo 154 / 137 40% 2 10.05.2027 -
Caspar Jander Southampton Ativo 131 / 128 40% 1 08.05.2027 -
Juanlu Bournemouth Ativo 150 / 163 40% 1 08.05.2027 -
Eddie Nketiah Crystal Palace Ativo 139 / 133 40% 1 08.05.2027 -
Jarrod Bowen West Ham United Ativo 154 / 160 40% 1 07.05.2027 -
Savinho Tottenham Ativo 148 / 146 40% 3 06.05.2027 -
Mohamed-Ali Cho Hull City Ativo 141 / 128 40% 3 06.05.2027 -
Jørgen Strand Larsen Brighton Ativo 143 / 134 40% 2 04.05.2027 -
Nicolas Jackson Aston Villa Ativo 147 / 150 40% 2 02.05.2027 -
Noni Madueke Arsenal Ativo 155 / 150 40% 1 02.05.2027 -
Kevin Fulham Ativo 156 / 155 40% 1 01.05.2027 -
John McGinn Aston Villa Ativo 149 / 153 40% 4 30.04.2027 -
Ousmane Diomande Nottingham Forest Ativo 156 / 152 40% 2 29.04.2027 -
Toby Collyer West Bromwich Albion Ativo 128 / 132 40% 2 29.04.2027 -
João Pedro Chelsea Ativo 160 / 168 40% 2 27.04.2027 -
Ollie Scarles West Ham United Ativo 123 / 119 40% 1 26.04.2027 -
Maxence Lacroix Chelsea Ativo 150 / 141 40% 1 26.04.2027 -
Michael Cooper Sheffield United Ativo 137 / 115 40% 2 22.04.2027 -
Ivor Pandur Hull City Ativo 123 / 116 40% 2 22.04.2027 -
Solly March Brighton Ativo 152 / 142 40% 4 22.04.2027 -
Jack Rudoni Coventry City Ativo 125 / 137 40% 2 22.04.2027 -
Chemsdine Talbi Sunderland Ativo 135 / 138 40% 1 22.04.2027 -
Sławomir Abramowicz Jagiellonia Ativo 129 / 135 40% 3 17.04.2027 -
Max Johnston Derby County Ativo 120 / 121 40% 3 14.04.2027 -
Martin Baturina Como Ativo 133 / 142 40% 1 13.04.2027 -
Zian Flemming Ipswich Town Ativo 123 / 135 40% 1 12.04.2027 -
Jason Knight Bristol City Ativo 129 / 135 40% 4 11.04.2027 -
Domenico Berardi Sassuolo Ativo 138 / 128 40% 1 11.04.2027 -
Brenden Aaronson Leeds United Ativo 132 / 149 40% 1 11.04.2027 -
Oliver Skipp Leicester City Ativo 125 / 135 40% 1 08.04.2027 -
Ethan Galbraith Swansea City Ativo 128 / 117 40% 2 07.04.2027 -
Tomáš Souček West Ham United Ativo 143 / 129 40% 2 07.04.2027 -
Yousef Salech Cardiff City Ativo 134 / 113 40% 2 06.04.2027 -
Harry Wilson Leeds United Ativo 148 / 131 40% 1 03.04.2027 -
Jacob Greaves Ipswich Town Ativo 131 / 136 40% 6 02.04.2027 -
Lucas Da Cunha Como Ativo 147 / 157 40% 1 02.04.2027 -
Luke McNally Bristol City Ativo 137 / 120 40% 1 02.04.2027 -
Kenny Tete Fulham Ativo 138 / 155 40% 3 01.04.2027 -
Brooke Norton-Cuffy Hull City Ativo 142 / 138 40% 2 01.04.2027 -
Toti Wolverhampton Ativo 139 / 122 40% 2 01.04.2027 -
Yoane Wissa Newcastle United Ativo 146 / 152 40% 1 01.04.2027 -
Ilyas Ansah Hull City Ativo 141 / 131 40% 2 31.03.2027 -
Patrick Agyemang Derby County Ativo 130 / 118 40% 1 31.03.2027 -
Shea Charles Southampton Ativo 132 / 144 40% 1 30.03.2027 -
Kyle Walker-Peters West Ham United Ativo 128 / 129 40% 3 27.03.2027 -
Henrique Araújo Casa Pia Ativo 126 / 107 40% 2 27.03.2027 -
Bernardo Fontes Braga Ativo 135 / 131 40% 1 27.03.2027 -
Pablo Rosario Porto Ativo 133 / 139 40% 15 23.03.2027 -
Pepê Porto Ativo 146 / 146 40% 6 23.03.2027 -
Welington Southampton Ativo 135 / 119 40% 2 23.03.2027 -
Milan van Ewijk Coventry City Ativo 133 / 140 40% 1 23.03.2027 -
Leon Goretzka Aston Villa Ativo 148 / 165 40% 3 21.03.2027 -
Javi Sánchez Arouca Ativo 123 / 142 40% 2 21.03.2027 -
João Carvalho Estoril Praia Ativo 137 / 115 40% 2 21.03.2027 -
Roberto Fernández Braga Ativo 133 / 157 40% 2 20.03.2027 -
Vinícius Lopes Santa Clara Ativo 123 / 122 40% 2 20.03.2027 -
André Wolverhampton Ativo 139 / 136 40% 2 18.03.2027 -
Adam Randell Bristol City Ativo 132 / 121 40% 1 18.03.2027 -
Nuno Santos Sporting CP Ativo 150 / 141 40% 3 17.03.2027 -
Sorriso Famalicao Ativo 132 / 145 40% 4 17.03.2027 -
Carlos Forbs Club Brugge Ativo 131 / 129 40% 3 17.03.2027 -
Fredrik Aursnes Benfica Ativo 148 / 164 40% 5 14.03.2027 -
William Gomes Porto Ativo 141 / 141 40% 3 13.03.2027 -
Matthew Targett Hull City Ativo 128 / 133 40% 1 12.03.2027 -
Zeno Debast Sporting CP Ativo 141 / 133 40% 7 11.03.2027 -
Harry Clarke Preston Ativo 137 / 139 40% 1 11.03.2027 -
Gustavo Silva Vitoria Guimaraes Ativo 127 / 106 40% 3 10.03.2027 -
João Palhinha Benfica Ativo 150 / 142 40% 13 08.03.2027 -
Eduardo Quaresma Sporting CP Ativo 138 / 135 40% 7 08.03.2027 -
Tomás Araújo Benfica Ativo 144 / 131 40% 8 07.03.2027 -
Sikou Niakaté Braga Ativo 130 / 122 40% 4 07.03.2027 -
Marcelo Allende Mamelodi Sundowns Ativo 125 / 128 40% 4 07.03.2027 -
Gabriel Silva Braga Ativo 123 / 124 40% 2 06.03.2027 -
Gianluca Prestianni Benfica Ativo 128 / 128 40% 5 04.03.2027 -
Enzo Barrenechea Benfica Ativo 140 / 149 40% 11 03.03.2027 -
Hwang In-Beom Porto Ativo 138 / 128 40% 11 03.03.2027 -
Lassina Traoré Shakhtar Ativo 127 / 112 40% 2 01.03.2027 -
Adriel Torreense Ativo 119 / 120 40% 2 27.02.2027 -
Alireza Yazdani Padideh Ativo 125 / 104 40% 1 27.02.2027 -
Oh Hyeon-Gyu Besiktas Ativo 127 / 112 40% 1 27.02.2027 -
Jackson Muleka Konyaspor Ativo 127 / 140 40% 1 24.02.2027 -
Yanis Begraoui Estoril Praia Ativo 125 / 142 40% 1 23.02.2027 -
Robin Roefs Sunderland Ativo 142 / 160 40% 3 22.02.2027 -
Samuel Soares Benfica Ativo 122 / 138 40% 2 22.02.2027 -
Elia Caprile Cagliari Ativo 143 / 136 40% 1 22.02.2027 -
Mads Hermansen West Ham United Ativo 130 / 134 40% 2 21.02.2027 -
Bilal Bayazıt Kayserispor Ativo 128 / 138 40% 2 21.02.2027 -
José Manuel López Palmeiras Ativo 143 / 140 40% 1 19.02.2027 -
Nicolò Tresoldi Club Brugge Ativo 137 / 120 40% 1 18.02.2027 -
Dawda Camara Alverca Ativo 116 / 106 40% 1 17.02.2027 -
Figueiredo Alverca Ativo 119 / 133 40% 1 16.02.2027 -
Mario Dorgeles Braga Ativo 128 / 142 40% 3 14.02.2027 -
Jesús Gallardo Toluca Ativo 145 / 136 40% 2 11.02.2027 -
Carlos Álvarez Club America Ativo 150 / 153 40% 5 10.02.2027 -
Andrew Robertson Tottenham Ativo 152 / 141 40% 2 10.02.2027 -
Luís Esteves Atlas Ativo 120 / 111 40% 1 10.02.2027 -
Joaquim Tigres Ativo 130 / 137 40% 1 10.02.2027 -
Jan Bednarek Porto Ativo 150 / 144 40% 4 09.02.2027 -
Mathias De Amorim Famalicao Ativo 124 / 144 40% 2 07.02.2027 -
Alfonso Trezza Arouca Ativo 114 / 127 40% 1 07.02.2027 -
Caio Alexandre Bahia Ativo 143 / 146 40% 10 03.02.2027 -
Andreas Jungdal Westerlo Ativo 130 / 129 40% 1 30.01.2027 -
Finn Azaz Southampton Ativo 119 / 140 40% 2 29.01.2027 -
Grégoire Coudert Burnley Ativo 134 / 126 40% 4 27.01.2027 -
Álex Berenguer Lokomotiv Moscow Ativo 150 / 138 40% 3 26.01.2027 -
Víctor Guzmán Monterrey Ativo 135 / 121 40% 1 23.01.2027 -
Yehvann Diouf OGC Nice Ativo 138 / 134 40% 1 22.01.2027 -
Agustín Palavecino Cruz Azul Ativo 130 / 130 40% 3 21.01.2027 -
Memphis Depay Corinthians Ativo 156 / 153 40% 1 21.01.2027 -
Rafik Guitane Estoril Praia Ativo 121 / 126 40% 1 15.01.2027 -
Brais Méndez RC Lens Ativo 156 / 132 40% 3 12.01.2027 -
Geny Sporting CP Ativo 135 / 127 40% 2 11.01.2027 -
Sidney Lima Santa Clara Ativo 136 / 129 40% 2 11.01.2027 -
Domingos Duarte São Paulo Ativo 138 / 129 40% 1 09.01.2027 -
Joseph Leclercq Tottenham Ativo 156 / 154 40% 1 08.01.2027 -
Osame Sahraoui LOSC Lille Ativo 143 / 134 40% 1 05.01.2027 -
Brent Gabriel Zulte Waregem Ativo 117 / 114 40% 1 04.01.2027 -
Hugo Souza Corinthians Ativo 132 / 144 40% 3 01.01.2027 -
Matheuzinho Corinthians Ativo 130 / 138 40% 1 29.12.2026 -
Cezary Miszta Rio Ave Ativo 124 / 128 40% 1 27.12.2026 -
Gabriel Brazão Santos Ativo 139 / 125 40% 1 25.12.2026 -
Reinildo Sunderland Ativo 144 / 153 40% 1 23.12.2026 -
Lucas Piton Vasco da Gama Ativo 125 / 131 40% 1 23.12.2026 -
Léo Ortiz Flamengo Ativo 134 / 137 40% 4 15.12.2026 -
Pau Torres Aston Villa Ativo 153 / 135 40% 1 15.12.2026 -
Jean-Baptiste Gorby Braga Ativo 143 / 124 40% 2 14.12.2026 -
Gérson Cruzeiro Ativo 136 / 128 40% 6 01.12.2026 -
Fabrício Bruno Cruzeiro Ativo 141 / 127 40% 6 27.11.2026 -
Nehuén Pérez Porto Ativo 152 / 144 40% 4 25.11.2026 -
Cristian Medina Botafogo Ativo 137 / 126 40% 2 25.11.2026 -
Habib Diarra Sunderland Ativo 129 / 146 40% 1 24.11.2026 -
Pedrinho Shakhtar Ativo 127 / 149 40% 1 23.11.2026 -
Soma Anzai FC Tokyo Ativo 123 / 115 40% 3 20.11.2026 -
Nathan Collins Brentford Ativo 134 / 137 40% 3 19.11.2026 -
Raúl Rangel Braga Ativo 139 / 138 40% 1 18.11.2026 -
Ianis Stoica Estrela da Amadora Ativo 112 / 118 40% 2 15.11.2026 -
Luciano Juba Bahia Ativo 132 / 132 40% 3 15.11.2026 -
Heorhii Sudakov Benfica Ativo 141 / 146 40% 7 14.11.2026 -
Galeno Al-Ahli Ativo 138 / 135 40% 1 13.11.2026 -
Bright Arrey-Mbi Braga Ativo 143 / 118 40% 1 11.11.2026 -
Lee Hyun-Ju Arouca Ativo 130 / 135 40% 1 09.11.2026 -
Álvaro Martínez Moreirense Ativo 120 / 101 40% 1 09.11.2026 -
Tony Strata Vitoria Guimaraes Ativo 127 / 124 40% 1 09.11.2026 -
Nathan Trott Cardiff City Ativo 129 / 137 40% 1 08.11.2026 -
Alexander Bah Benfica Ativo 132 / 150 40% 1 01.11.2026 -
Matheus Pereira Cruzeiro Ativo 134 / 147 40% 1 01.11.2026 -
Renan Lodi Atlético Mineiro Ativo 130 / 142 40% 2 30.10.2026 -
Carlos Rodríguez Cruz Azul Ativo 128 / 128 40% 1 30.10.2026 -
Luis Romo Guadalajara Ativo 134 / 153 40% 2 27.10.2026 -
Samuel Dahl Benfica Ativo 126 / 150 40% 6 27.10.2026 -
Ramón Juárez Club America Ativo 143 / 146 40% 1 25.10.2026 -
Lucas Paquetá Flamengo Ativo 141 / 135 40% 1 23.10.2026 -
Santiago Ramos Mingo Bahia Ativo 136 / 122 40% 1 23.10.2026 -
Alexis Vega Feyenoord Ativo 141 / 157 40% 2 22.10.2026 -
Benjamin Kanurić Grodig Ativo 115 / 97 40% 1 22.10.2026 -
Martín Tejón Maritimo Ativo 122 / 125 40% 1 22.10.2026 -
Mateja Stjepanović Moreirense Ativo 109 / 110 40% 1 22.10.2026 -
Erik Lira Cruz Azul Ativo 139 / 125 40% 1 20.10.2026 -
Alberto Costa Porto Ativo 139 / 126 40% 6 18.10.2026 -
Gustaf Lagerbielke Braga Ativo 127 / 137 40% 2 18.10.2026 -
Rodrigo Garro Corinthians Ativo 143 / 132 40% 2 14.10.2026 -
Victor Froholdt Porto Ativo 148 / 166 40% 4 13.10.2026 -
Daniel Muñoz Nottingham Forest Ativo 150 / 134 40% 1 10.10.2026 -
Patrick Sequeira Casa Pia Ativo 128 / 118 40% 1 04.10.2026 -
Alan Varela Porto Ativo 152 / 145 40% 4 03.10.2026 -
Rico Henry River Plate Ativo 147 / 148 40% 2 03.10.2026 -
Víctor Gómez Braga Ativo 127 / 122 40% 4 02.10.2026 -
Brian Gutiérrez Guadalajara Ativo 131 / 113 40% 1 30.09.2026 -
Beni Mukendi Vitoria Guimaraes Ativo 133 / 127 40% 1 30.09.2026 -
Lisandro Martínez Ajax Ativo 145 / 169 40% 1 30.09.2026 -
Arthur Flamengo Ativo 133 / 132 40% 1 30.09.2026 -
Elliot Anderson Manchester City Ativo 140 / 167 40% 1 29.09.2026 -
Manu Pozo Torreense Ativo 111 / 121 40% 1 27.09.2026 -
Dodi Lukébakio Benfica Ativo 145 / 133 40% 3 25.09.2026 -
Guilherme Arana Fluminense Ativo 129 / 147 40% 4 25.09.2026 -
Andreas Schjelderup Benfica Ativo 129 / 127 40% 3 24.09.2026 -
Vitinho Botafogo Ativo 127 / 140 40% 1 22.09.2026 -
Xaver Schlager Nottingham Forest Ativo 159 / 153 40% 1 22.09.2026 -
Brandon Aguilera Rio Ave Ativo 125 / 118 40% 2 18.09.2026 -
Danilo Botafogo Ativo 137 / 139 40% 1 18.09.2026 -
Matías Lacava Vizela Ativo 113 / 117 40% 1 18.09.2026 -
Espen van Ee Arouca Ativo 113 / 103 40% 2 16.09.2026 -
William Cruzeiro Ativo 131 / 128 40% 1 13.09.2026 -
Andreas Pereira Palmeiras Ativo 146 / 143 40% 1 13.09.2026 -
Roman Celentano FC Cincinnati Ativo 131 / 108 40% 1 13.09.2026 -
Francisco Moura Porto Ativo 126 / 152 40% 3 07.09.2026 -
Jhon Arias Palmeiras Ativo 136 / 137 40% 1 07.09.2026 -
Andrés Gómez Vasco da Gama Ativo 135 / 125 40% 1 05.09.2026 -
Matheus Dias Nacional Ativo 114 / 138 40% 1 04.09.2026 -
Pau Víctor Braga Ativo 145 / 126 40% 1 22.08.2026 -
Francisco Domingues Moreirense Ativo 113 / 135 40% 1 22.08.2026 -
Martinelli Fluminense Ativo 135 / 132 40% 1 18.08.2026 -
Marcos Antonio Sport Recife Ativo 142 / 132 40% 2 15.08.2026 -
Iván Fresneda Sporting CP Ativo 144 / 142 40% 2 15.08.2026 -
Luis Sinisterra Cruzeiro Ativo 134 / 144 40% 2 14.08.2026 -
Mathias Jensen Brentford Ativo 135 / 143 40% 1 06.08.2026 -
Kobbie Mainoo Manchester United Ativo 154 / 168 40% 1 01.08.2026 -
Leandro Barreiro Benfica Ativo 132 / 154 40% 1 01.08.2026 -